Aérodrome :
LOGIN :

S'inscrire | Disclaimer

   EN    FR    IT 

 










Légende :    VFR   VFR Marginal   IFR   IFR Intensif   IFR Très Intensif
Visi : 
Plafond : 
>= 8 km
>= 3000ft
5 à 8 km
1000 à 3000 ft
1500m à 5 km
500 à 1000 ft
800 à 1500m
200 à 500 ft
< 800m
< 200 ft
Symboles :   Orages  Brouillard  Fortes neiges  Fortes précipitations  Vent > 20 kt
SIGMETs :   Divers  Orages  Givrage  Turbulence  Onde Orograph.  Cendres Volcan.






- Altitude de l'aérodrome : 464 ft
- Code IATA : EVX


LFOE - Evreux

DERNIER METAR :
  • 272130Z AUTO 26008KT 9999 FEW045 03/01 Q1016

METARs EXPIRÉS :
  • 272100Z AUTO 26007KT 9999 BKN045 03/00 Q1016
  • 272030Z AUTO 26007KT 9999 BKN044 04/01 Q1015
  • 272000Z AUTO 27005KT 9999 BKN043 03/00 Q1014
  • 271930Z AUTO 28006KT 9999 SCT040 04/00 Q1013
  • 271900Z AUTO 29007KT 9999 FEW040 05/01 Q1013

TAF TAF LFOE
Valide du 27 à 15h jusqu'au 28 à 15h UTC


271400Z 2715/2815 32020G35KT 9999 BKN025
BECMG 2719/2721 24010KT
BECMG 2801/2803 18008KT
BECMG 2807/2808 18015G25KT
TEMPO 2808/2811 4000 -RA BKN013
BECMG 2811/2812 OVC007
PROB30
TEMPO 2814/2815 3000 -DZ BKN004 OVC007



MET'MAP, la Météo Aéronautique d'un coup d'oeil ! - Copyright ORBIFLY Décembre 2007 - Disclaimer

ORBIFLY MET'MAP TEAM :

Programmation & Développement : Alexandra Zaïnal
Sur une idée originale de : Baudouin d'Aumeries
Assistance à la programmation : Marc-Olivier Méhu
Soutien technique & logistique : Manuel Goepfert

Contact : metmap@orbifly.com




SOURCES & CREDITS :

   NOAA